Wetterdaten: aktuell Dienstag, 26.01.2021 01:10
Datum Zeit Temp. Feuchte Luftdruck Regen Wind Richtung Richtung Sonnenschein UV Solar Windchill Windben
26.01.2021 01:10 -0.1 C 90 % 1016.6 hPa 0.0 mm 7.4 km/h W-NW 289 0 min 0.0 UV-I 0.0 W/m -2.7 C 14.5 km/h
26.01.2021 01:00 -0.2 C 90 % 1016.6 hPa 0.0 mm 6.6 km/h W 268 0 min 0.0 UV-I 0.0 W/m -2.5 C 14.5 km/h
26.01.2021 00:50 -0.2 C 91 % 1016.5 hPa 0.0 mm 6.2 km/h W 274 0 min 0.0 UV-I 0.0 W/m -2.3 C 12.9 km/h
26.01.2021 00:40 -0.2 C 90 % 1016.3 hPa 0.0 mm 7.7 km/h W 276 0 min 0.0 UV-I 0.0 W/m -2.9 C 14.5 km/h
26.01.2021 00:30 -0.2 C 90 % 1016.3 hPa 0.0 mm 6.6 km/h W 279 0 min 0.0 UV-I 0.0 W/m -2.5 C 14.5 km/h
26.01.2021 00:20 -0.1 C 90 % 1016.2 hPa 0.0 mm 4.9 km/h W-NW 282 0 min 0.0 UV-I 0.0 W/m -1.7 C 11.3 km/h
26.01.2021 00:10 -0.1 C 90 % 1016.0 hPa 0.0 mm 6.5 km/h W-NW 288 0 min 0.0 UV-I 0.0 W/m -2.3 C 14.5 km/h
26.01.2021 00:00 -0.1 C 90 % 1015.8 hPa 0.0 mm 7.3 km/h W 268 0 min 0.0 UV-I 0.0 W/m -2.6 C 12.9 km/h
25.01.2021 23:50 -0.1 C 90 % 1015.8 hPa 0.0 mm 4.8 km/h W 281 0 min 0.0 UV-I 0.0 W/m -1.6 C 11.3 km/h
25.01.2021 23:40 -0.2 C 90 % 1015.8 hPa 0.0 mm 5.8 km/h W 266 0 min 0.0 UV-I 0.0 W/m -2.2 C 12.9 km/h
25.01.2021 23:30 -0.2 C 91 % 1015.5 hPa 0.0 mm 4.7 km/h W 279 0 min 0.0 UV-I 0.0 W/m -1.7 C 12.9 km/h
25.01.2021 23:20 -0.2 C 91 % 1015.5 hPa 0.0 mm 3.9 km/h W-NW 292 0 min 0.0 UV-I 0.0 W/m -0.2 C 6.4 km/h
25.01.2021 23:10 -0.2 C 91 % 1015.3 hPa 0.0 mm 4.5 km/h W-NW 288 0 min 0.0 UV-I 0.0 W/m -0.2 C 9.7 km/h
25.01.2021 23:00 -0.2 C 91 % 1015.1 hPa 0.0 mm 4.1 km/h W 271 0 min 0.0 UV-I 0.0 W/m -0.2 C 9.7 km/h
25.01.2021 22:50 -0.2 C 91 % 1015.1 hPa 0.0 mm 4.0 km/h W 277 0 min 0.0 UV-I 0.0 W/m -0.2 C 8.0 km/h
25.01.2021 22:40 -0.2 C 90 % 1014.8 hPa 0.0 mm 4.5 km/h W-NW 284 0 min 0.0 UV-I 0.0 W/m -0.2 C 11.3 km/h
25.01.2021 22:30 -0.3 C 90 % 1014.6 hPa 0.0 mm 4.9 km/h W 273 0 min 0.0 UV-I 0.0 W/m -1.9 C 9.7 km/h
25.01.2021 22:20 -0.3 C 90 % 1014.4 hPa 0.0 mm 3.7 km/h W 269 0 min 0.0 UV-I 0.0 W/m -0.3 C 9.7 km/h
25.01.2021 22:10 -0.4 C 91 % 1014.2 hPa 0.0 mm 5.0 km/h W 267 0 min 0.0 UV-I 0.0 W/m -2.0 C 11.3 km/h
25.01.2021 22:00 -0.7 C 91 % 1014.1 hPa 0.0 mm 3.5 km/h W 263 0 min 0.0 UV-I 0.0 W/m -0.7 C 12.9 km/h
25.01.2021 21:50 -0.7 C 91 % 1013.9 hPa 0.0 mm 3.1 km/h W-SW 257 0 min 0.0 UV-I 0.0 W/m -0.7 C 9.7 km/h
25.01.2021 21:40 -0.7 C 91 % 1013.7 hPa 0.0 mm 1.3 km/h SW 225 0 min 0.0 UV-I 0.0 W/m -0.7 C 4.8 km/h
25.01.2021 21:30 -0.6 C 91 % 1013.5 hPa 0.0 mm 1.6 km/h SW 225 0 min 0.0 UV-I 0.0 W/m -0.6 C 4.8 km/h
25.01.2021 21:20 -0.4 C 90 % 1013.2 hPa 0.0 mm 1.8 km/h W-NW 282 0 min 0.0 UV-I 0.0 W/m -0.4 C 6.4 km/h
25.01.2021 21:10 -0.1 C 90 % 1013.1 hPa 0.0 mm 2.7 km/h W-SW 250 0 min 0.0 UV-I 0.0 W/m -0.1 C 8.0 km/h
25.01.2021 21:00 0.0 C 91 % 1013.0 hPa 0.0 mm 2.1 km/h W 269 0 min 0.0 UV-I 0.0 W/m 0.0 C 6.4 km/h
25.01.2021 20:50 0.1 C 90 % 1012.9 hPa 0.0 mm 2.6 km/h W 268 0 min 0.0 UV-I 0.0 W/m 0.1 C 9.7 km/h
25.01.2021 20:40 0.2 C 90 % 1012.7 hPa 0.0 mm 4.8 km/h W 279 0 min 0.0 UV-I 0.0 W/m -1.3 C 12.9 km/h
25.01.2021 20:30 0.3 C 90 % 1012.5 hPa 0.0 mm 4.6 km/h W-NW 287 0 min 0.0 UV-I 0.0 W/m -1.1 C 9.7 km/h
25.01.2021 20:20 0.2 C 90 % 1012.2 hPa 0.0 mm 6.9 km/h W 265 0 min 0.0 UV-I 0.0 W/m -2.1 C 14.5 km/h
25.01.2021 20:10 0.2 C 91 % 1011.8 hPa 0.0 mm 9.4 km/h W 271 0 min 0.0 UV-I 0.0 W/m -2.9 C 16.1 km/h
25.01.2021 20:00 0.1 C 91 % 1011.8 hPa 0.0 mm 6.0 km/h NW 308 0 min 0.0 UV-I 0.0 W/m -1.9 C 12.9 km/h
25.01.2021 19:50 0.1 C 91 % 1011.5 hPa 0.0 mm 9.0 km/h W 266 0 min 0.0 UV-I 0.0 W/m -2.9 C 16.1 km/h
25.01.2021 19:40 0.2 C 91 % 1011.3 hPa 0.0 mm 8.2 km/h W 266 0 min 0.0 UV-I 0.0 W/m -2.6 C 17.7 km/h
25.01.2021 19:30 0.2 C 91 % 1011.2 hPa 0.0 mm 7.7 km/h W 275 0 min 0.0 UV-I 0.0 W/m -2.4 C 16.1 km/h
25.01.2021 19:20 0.2 C 92 % 1011.0 hPa 0.0 mm 7.9 km/h W-NW 298 0 min 0.0 UV-I 0.0 W/m -2.5 C 16.1 km/h
25.01.2021 19:10 0.3 C 92 % 1010.8 hPa 0.0 mm 12.3 km/h NW 314 0 min 0.0 UV-I 0.0 W/m -3.5 C 22.5 km/h
25.01.2021 19:00 0.3 C 92 % 1010.6 hPa 0.0 mm 12.7 km/h W-NW 292 0 min 0.0 UV-I 0.0 W/m -3.6 C 20.9 km/h
25.01.2021 18:50 0.3 C 91 % 1010.4 hPa 0.0 mm 10.6 km/h W 275 0 min 0.0 UV-I 0.0 W/m -3.1 C 20.9 km/h
25.01.2021 18:40 0.3 C 91 % 1010.2 hPa 0.0 mm 10.9 km/h W-NW 300 0 min 0.0 UV-I 0.0 W/m -3.2 C 19.3 km/h
25.01.2021 18:30 0.3 C 91 % 1010.0 hPa 0.0 mm 10.9 km/h W-NW 290 0 min 0.0 UV-I 0.0 W/m -3.2 C 22.5 km/h
25.01.2021 18:20 0.3 C 91 % 1009.8 hPa 0.0 mm 11.5 km/h W-NW 290 0 min 0.0 UV-I 0.0 W/m -3.3 C 20.9 km/h
25.01.2021 18:10 0.3 C 91 % 1009.7 hPa 0.0 mm 9.7 km/h W 279 0 min 0.0 UV-I 0.0 W/m -2.9 C 19.3 km/h
25.01.2021 18:00 0.4 C 91 % 1009.5 hPa 0.0 mm 8.0 km/h NW 322 0 min 0.0 UV-I 0.0 W/m -2.3 C 19.3 km/h
25.01.2021 17:50 0.5 C 91 % 1009.3 hPa 0.0 mm 8.4 km/h W 276 0 min 0.0 UV-I 0.0 W/m -2.3 C 17.7 km/h
25.01.2021 17:40 0.6 C 91 % 1009.3 hPa 0.0 mm 6.4 km/h W 265 0 min 0.0 UV-I 0.0 W/m -1.5 C 19.3 km/h
25.01.2021 17:30 0.6 C 91 % 1009.0 hPa 0.0 mm 4.6 km/h W-NW 291 0 min 0.0 UV-I 0.0 W/m -0.7 C 8.0 km/h
25.01.2021 17:20 0.6 C 91 % 1008.8 hPa 0.0 mm 3.1 km/h W-NW 303 0 min 0.0 UV-I 0.0 W/m 0.6 C 6.4 km/h
25.01.2021 17:10 0.5 C 91 % 1008.6 hPa 0.0 mm 3.6 km/h W 280 0 min 0.0 UV-I 5.0 W/m 0.5 C 6.4 km/h
25.01.2021 17:00 0.5 C 91 % 1008.6 hPa 0.0 mm 4.7 km/h W 269 0 min 0.0 UV-I 7.0 W/m -0.9 C 9.7 km/h
25.01.2021 16:50 0.5 C 91 % 1008.4 hPa 0.0 mm 6.3 km/h W 269 0 min 0.0 UV-I 11.0 W/m -1.6 C 12.9 km/h
25.01.2021 16:40 0.7 C 91 % 1008.3 hPa 0.0 mm 5.1 km/h W 264 0 min 0.0 UV-I 37.0 W/m -0.8 C 11.3 km/h
25.01.2021 16:30 0.6 C 91 % 1008.1 hPa 0.0 mm 5.1 km/h W-SW 250 0 min 0.0 UV-I 44.0 W/m -1.0 C 11.3 km/h
25.01.2021 16:20 0.5 C 91 % 1008.0 hPa 0.0 mm 4.7 km/h W-NW 297 0 min 0.0 UV-I 26.0 W/m -0.9 C 9.7 km/h
25.01.2021 16:10 0.5 C 91 % 1007.7 hPa 0.0 mm 4.2 km/h W 277 0 min 0.0 UV-I 25.0 W/m 0.5 C 11.3 km/h
25.01.2021 16:00 0.6 C 92 % 1007.7 hPa 0.0 mm 5.0 km/h W-NW 289 0 min 0.0 UV-I 77.0 W/m -0.9 C 12.9 km/h
25.01.2021 15:50 0.3 C 90 % 1007.5 hPa 0.2 mm 4.4 km/h W 269 10 min 0.0 UV-I 128.0 W/m 0.3 C 9.7 km/h
25.01.2021 15:40 0.6 C 89 % 1007.3 hPa 0.2 mm 4.7 km/h W 280 0 min 0.0 UV-I 46.0 W/m -0.8 C 11.3 km/h
25.01.2021 15:30 1.4 C 85 % 1007.3 hPa 0.0 mm 11.9 km/h W-NW 286 0 min 0.0 UV-I 16.0 W/m -2.1 C 25.7 km/h
25.01.2021 15:20 2.1 C 84 % 1006.7 hPa 0.0 mm 7.2 km/h W-NW 288 0 min 0.0 UV-I 28.0 W/m -0.0 C 19.3 km/h
25.01.2021 15:10 2.2 C 83 % 1006.6 hPa 0.0 mm 9.9 km/h NW 304 0 min 0.0 UV-I 118.0 W/m -0.7 C 17.7 km/h
25.01.2021 15:00 2.5 C 83 % 1006.4 hPa 0.0 mm 9.9 km/h W-SW 253 10 min 0.0 UV-I 209.0 W/m -0.3 C 17.7 km/h
25.01.2021 14:50 2.2 C 85 % 1006.3 hPa 0.0 mm 10.8 km/h W 275 10 min 0.6 UV-I 371.0 W/m -0.9 C 19.3 km/h
25.01.2021 14:40 2.1 C 86 % 1006.2 hPa 0.0 mm 7.4 km/h W-NW 297 10 min 0.5 UV-I 223.0 W/m -0.1 C 14.5 km/h
25.01.2021 14:30 1.9 C 87 % 1006.1 hPa 0.0 mm 8.0 km/h NW 322 10 min 0.6 UV-I 344.0 W/m -0.5 C 17.7 km/h
25.01.2021 14:20 1.7 C 86 % 1006.0 hPa 0.0 mm 10.1 km/h W 271 0 min 0.5 UV-I 172.0 W/m -1.3 C 16.1 km/h
25.01.2021 14:10 1.6 C 89 % 1005.9 hPa 0.0 mm 8.8 km/h W-NW 284 10 min 0.6 UV-I 494.0 W/m -1.1 C 17.7 km/h
25.01.2021 14:00 1.3 C 88 % 1005.9 hPa 0.0 mm 11.5 km/h W 268 0 min 0.5 UV-I 144.0 W/m -2.1 C 19.3 km/h
25.01.2021 13:50 1.6 C 87 % 1006.0 hPa 0.0 mm 12.3 km/h W 280 0 min 0.0 UV-I 60.0 W/m -1.9 C 20.9 km/h
25.01.2021 13:40 1.8 C 85 % 1005.8 hPa 0.0 mm 11.3 km/h W-SW 246 0 min 0.0 UV-I 128.0 W/m -1.5 C 22.5 km/h
25.01.2021 13:30 2.1 C 84 % 1005.8 hPa 0.0 mm 12.9 km/h W 263 0 min 0.0 UV-I 183.0 W/m -1.4 C 25.7 km/h
25.01.2021 13:20 2.3 C 83 % 1005.5 hPa 0.0 mm 10.9 km/h W 277 10 min 0.7 UV-I 316.0 W/m -0.8 C 20.9 km/h
25.01.2021 13:10 2.1 C 85 % 1005.5 hPa 0.0 mm 8.1 km/h W 269 10 min 1.0 UV-I 550.0 W/m -0.3 C 16.1 km/h
25.01.2021 13:00 1.7 C 86 % 1005.5 hPa 0.0 mm 8.0 km/h W 267 10 min 1.0 UV-I 399.0 W/m -0.7 C 16.1 km/h
25.01.2021 12:50 1.2 C 87 % 1005.5 hPa 0.0 mm 9.6 km/h W 274 0 min 0.8 UV-I 146.0 W/m -1.8 C 19.3 km/h
25.01.2021 12:40 1.6 C 88 % 1005.4 hPa 0.0 mm 8.4 km/h W-NW 298 0 min 0.7 UV-I 171.0 W/m -1.0 C 22.5 km/h
25.01.2021 12:30 1.7 C 90 % 1005.4 hPa 0.0 mm 7.4 km/h W-SW 242 0 min 0.8 UV-I 200.0 W/m -0.6 C 16.1 km/h
25.01.2021 12:20 1.1 C 92 % 1005.4 hPa 0.2 mm 6.3 km/h W 281 10 min 1.0 UV-I 408.0 W/m -0.9 C 12.9 km/h
25.01.2021 12:10 0.7 C 93 % 1005.3 hPa 0.0 mm 5.1 km/h NW 306 0 min 0.7 UV-I 123.0 W/m -0.8 C 12.9 km/h
25.01.2021 12:00 0.7 C 93 % 1005.3 hPa 0.2 mm 5.1 km/h W-NW 289 0 min 0.5 UV-I 109.0 W/m -0.8 C 12.9 km/h
25.01.2021 11:50 0.1 C 92 % 1005.3 hPa 0.2 mm 8.9 km/h NW 323 0 min 0.5 UV-I 84.0 W/m -2.9 C 16.1 km/h
25.01.2021 11:40 0.1 C 91 % 1005.2 hPa 0.2 mm 11.2 km/h W-NW 289 0 min 0.0 UV-I 56.0 W/m -3.5 C 22.5 km/h
25.01.2021 11:30 0.2 C 91 % 1005.1 hPa 0.0 mm 12.2 km/h W 280 0 min 0.0 UV-I 44.0 W/m -3.6 C 22.5 km/h
25.01.2021 11:20 0.5 C 91 % 1004.9 hPa 0.0 mm 12.4 km/h NW 305 0 min 0.0 UV-I 49.0 W/m -3.3 C 22.5 km/h
25.01.2021 11:10 0.9 C 91 % 1004.8 hPa 0.0 mm 8.5 km/h W-NW 302 0 min 0.0 UV-I 67.0 W/m -1.8 C 17.7 km/h
25.01.2021 11:00 0.9 C 91 % 1004.5 hPa 0.0 mm 9.4 km/h W 269 0 min 0.0 UV-I 67.0 W/m -2.1 C 19.3 km/h
25.01.2021 10:50 0.8 C 91 % 1004.3 hPa 0.0 mm 12.1 km/h W-SW 240 0 min 0.0 UV-I 79.0 W/m -2.9 C 20.9 km/h
25.01.2021 10:40 0.7 C 92 % 1004.1 hPa 0.0 mm 11.0 km/h W 277 0 min 0.0 UV-I 98.0 W/m -2.7 C 19.3 km/h
25.01.2021 10:30 0.3 C 93 % 1004.1 hPa 0.0 mm 8.8 km/h W-SW 255 0 min 0.0 UV-I 77.0 W/m -2.6 C 19.3 km/h
25.01.2021 10:20 0.1 C 93 % 1003.9 hPa 0.0 mm 7.7 km/h W 269 0 min 0.0 UV-I 46.0 W/m -2.5 C 16.1 km/h
25.01.2021 10:10 0.1 C 93 % 1003.8 hPa 0.0 mm 7.1 km/h W-NW 298 0 min 0.0 UV-I 30.0 W/m -2.3 C 16.1 km/h
25.01.2021 10:00 0.2 C 93 % 1003.6 hPa 0.0 mm 7.6 km/h W-NW 286 0 min 0.0 UV-I 33.0 W/m -2.4 C 14.5 km/h
25.01.2021 09:50 0.2 C 93 % 1003.4 hPa 0.0 mm 9.7 km/h W 278 0 min 0.0 UV-I 35.0 W/m -3.0 C 17.7 km/h
25.01.2021 09:40 0.2 C 92 % 1003.3 hPa 0.2 mm 9.8 km/h W-NW 285 0 min 0.0 UV-I 23.0 W/m -3.0 C 19.3 km/h
25.01.2021 09:30 0.4 C 91 % 1003.2 hPa 0.0 mm 10.6 km/h W-SW 250 0 min 0.0 UV-I 14.0 W/m -3.0 C 22.5 km/h
25.01.2021 09:20 0.6 C 91 % 1003.1 hPa 0.0 mm 5.3 km/h W-NW 288 0 min 0.0 UV-I 14.0 W/m -1.0 C 11.3 km/h
25.01.2021 09:10 0.6 C 91 % 1002.9 hPa 0.0 mm 5.0 km/h NW 306 0 min 0.0 UV-I 28.0 W/m -0.9 C 12.9 km/h
25.01.2021 09:00 0.5 C 91 % 1002.7 hPa 0.0 mm 5.7 km/h NW 309 0 min 0.0 UV-I 26.0 W/m -1.3 C 12.9 km/h
25.01.2021 08:50 0.4 C 92 % 1002.6 hPa 0.0 mm 8.3 km/h W-NW 294 0 min 0.0 UV-I 21.0 W/m -2.4 C 16.1 km/h
25.01.2021 08:40 0.4 C 92 % 1002.4 hPa 0.0 mm 9.2 km/h W-NW 283 0 min 0.0 UV-I 16.0 W/m -2.6 C 17.7 km/h
25.01.2021 08:30 0.4 C 93 % 1002.3 hPa 0.0 mm 8.1 km/h NW 317 0 min 0.0 UV-I 12.0 W/m -2.3 C 19.3 km/h
25.01.2021 08:20 0.4 C 93 % 1002.1 hPa 0.0 mm 9.2 km/h W-NW 284 0 min 0.0 UV-I 7.0 W/m -2.6 C 17.7 km/h
25.01.2021 08:10 0.5 C 93 % 1002.0 hPa 0.0 mm 9.2 km/h W 271 0 min 0.0 UV-I 0.0 W/m -2.5 C 17.7 km/h
25.01.2021 08:00 0.6 C 93 % 1001.8 hPa 0.0 mm 8.1 km/h W 264 0 min 0.0 UV-I 0.0 W/m -2.1 C 17.7 km/h
25.01.2021 07:50 0.5 C 93 % 1001.6 hPa 0.0 mm 6.5 km/h W 270 0 min 0.0 UV-I 0.0 W/m -1.6 C 12.9 km/h
25.01.2021 07:40 0.4 C 94 % 1001.5 hPa 0.0 mm 8.7 km/h W 261 0 min 0.0 UV-I 0.0 W/m -2.5 C 16.1 km/h
25.01.2021 07:30 0.4 C 94 % 1001.3 hPa 0.0 mm 8.1 km/h W-SW 258 0 min 0.0 UV-I 0.0 W/m -2.3 C 14.5 km/h
25.01.2021 07:20 0.3 C 94 % 1001.1 hPa 0.0 mm 5.2 km/h W 261 0 min 0.0 UV-I 0.0 W/m -1.3 C 12.9 km/h
25.01.2021 07:10 0.3 C 94 % 1001.1 hPa 0.0 mm 6.7 km/h W-NW 286 0 min 0.0 UV-I 0.0 W/m -1.9 C 14.5 km/h
25.01.2021 07:00 0.3 C 94 % 1001.0 hPa 0.0 mm 4.9 km/h W-NW 289 0 min 0.0 UV-I 0.0 W/m -1.2 C 8.0 km/h
25.01.2021 06:50 0.4 C 94 % 1001.0 hPa 0.0 mm 5.6 km/h W-NW 295 0 min 0.0 UV-I 0.0 W/m -1.4 C 12.9 km/h
25.01.2021 06:40 0.4 C 94 % 1001.0 hPa 0.2 mm 6.8 km/h W-NW 286 0 min 0.0 UV-I 0.0 W/m -1.9 C 16.1 km/h
25.01.2021 06:30 0.4 C 94 % 1001.0 hPa 0.2 mm 9.1 km/h W 259 0 min 0.0 UV-I 0.0 W/m -2.6 C 17.7 km/h
25.01.2021 06:20 0.6 C 94 % 1000.9 hPa 0.0 mm 9.2 km/h W-NW 288 0 min 0.0 UV-I 0.0 W/m -2.4 C 17.7 km/h
25.01.2021 06:10 0.6 C 94 % 1000.8 hPa 0.0 mm 6.7 km/h NW 309 0 min 0.0 UV-I 0.0 W/m -1.6 C 16.1 km/h
25.01.2021 06:00 0.6 C 94 % 1000.6 hPa 0.0 mm 4.5 km/h W-NW 286 0 min 0.0 UV-I 0.0 W/m 0.6 C 9.7 km/h
25.01.2021 05:50 0.6 C 94 % 1000.6 hPa 0.0 mm 4.8 km/h W-NW 303 0 min 0.0 UV-I 0.0 W/m -0.8 C 11.3 km/h
25.01.2021 05:40 0.3 C 94 % 1000.5 hPa 0.0 mm 2.4 km/h W-NW 300 0 min 0.0 UV-I 0.0 W/m 0.3 C 6.4 km/h
25.01.2021 05:30 0.3 C 94 % 1000.5 hPa 0.0 mm 2.6 km/h W-NW 300 0 min 0.0 UV-I 0.0 W/m 0.3 C 6.4 km/h
25.01.2021 05:20 0.3 C 94 % 1000.4 hPa 0.0 mm 2.7 km/h W-NW 300 0 min 0.0 UV-I 0.0 W/m 0.3 C 6.4 km/h
25.01.2021 05:10 0.3 C 94 % 1000.2 hPa 0.0 mm 2.9 km/h N-NW 332 0 min 0.0 UV-I 0.0 W/m 0.3 C 6.4 km/h
25.01.2021 05:00 0.3 C 94 % 1000.2 hPa 0.0 mm 2.7 km/h W-NW 293 0 min 0.0 UV-I 0.0 W/m 0.3 C 9.7 km/h
25.01.2021 04:50 0.2 C 94 % 1000.0 hPa 0.0 mm 3.2 km/h W-NW 297 0 min 0.0 UV-I 0.0 W/m 0.2 C 6.4 km/h
25.01.2021 04:40 0.2 C 94 % 1000.2 hPa 0.0 mm 2.1 km/h W-NW 286 0 min 0.0 UV-I 0.0 W/m 0.2 C 6.4 km/h
25.01.2021 04:30 0.0 C 94 % 1000.1 hPa 0.0 mm 0.8 km/h W-NW 286 0 min 0.0 UV-I 0.0 W/m 0.0 C 3.2 km/h
25.01.2021 04:20 -0.1 C 94 % 1000.0 hPa 0.0 mm 0.0 km/h W-NW 286 0 min 0.0 UV-I 0.0 W/m -0.1 C 0.0 km/h
25.01.2021 04:10 -0.1 C 94 % 1000.0 hPa 0.0 mm 0.0 km/h W-NW 286 0 min 0.0 UV-I 0.0 W/m -0.1 C 0.0 km/h
25.01.2021 04:00 0.0 C 94 % 1000.0 hPa 0.0 mm 0.7 km/h W-NW 286 0 min 0.0 UV-I 0.0 W/m 0.0 C 3.2 km/h
25.01.2021 03:50 0.0 C 93 % 1000.2 hPa 0.0 mm 1.9 km/h W-NW 286 0 min 0.0 UV-I 0.0 W/m 0.0 C 4.8 km/h
25.01.2021 03:40 0.0 C 93 % 1000.3 hPa 0.0 mm 1.5 km/h W-NW 286 0 min 0.0 UV-I 0.0 W/m 0.0 C 6.4 km/h
25.01.2021 03:30 -0.1 C 93 % 1000.3 hPa 0.2 mm 0.8 km/h W-SW 248 0 min 0.0 UV-I 0.0 W/m -0.1 C 4.8 km/h
25.01.2021 03:20 0.0 C 93 % 1000.2 hPa 0.0 mm 0.9 km/h W-SW 248 0 min 0.0 UV-I 0.0 W/m 0.0 C 4.8 km/h
25.01.2021 03:10 0.0 C 92 % 1000.3 hPa 0.2 mm 0.9 km/h W-SW 248 0 min 0.0 UV-I 0.0 W/m 0.0 C 4.8 km/h
25.01.2021 03:00 0.1 C 92 % 1000.4 hPa 0.2 mm 1.2 km/h W-SW 248 0 min 0.0 UV-I 0.0 W/m 0.1 C 6.4 km/h
25.01.2021 02:50 0.2 C 91 % 1000.3 hPa 0.0 mm 2.0 km/h W-SW 254 0 min 0.0 UV-I 0.0 W/m 0.2 C 6.4 km/h
25.01.2021 02:40 0.2 C 91 % 1000.2 hPa 0.0 mm 1.6 km/h W 266 0 min 0.0 UV-I 0.0 W/m 0.2 C 8.0 km/h
25.01.2021 02:30 0.2 C 91 % 1000.2 hPa 0.0 mm 2.0 km/h W-NW 291 0 min 0.0 UV-I 0.0 W/m 0.2 C 9.7 km/h
25.01.2021 02:20 0.2 C 90 % 1000.1 hPa 0.0 mm 1.5 km/h SW 219 0 min 0.0 UV-I 0.0 W/m 0.2 C 6.4 km/h
25.01.2021 02:10 0.2 C 90 % 1000.0 hPa 0.0 mm 1.9 km/h W-SW 238 0 min 0.0 UV-I 0.0 W/m 0.2 C 9.7 km/h
25.01.2021 02:00 0.3 C 90 % 999.8 hPa 0.0 mm 1.4 km/h S-SW 206 0 min 0.0 UV-I 0.0 W/m 0.3 C 4.8 km/h
_ Min-Zeit 21:40 13:20 02:00 - 04:10 - - - - - 11:30 04:10
Minimum _ -0.7 C 83 % 999.8 hPa - 0.0 km/h - - - - - -3.6 C 0.0 km/h
_ Max-Zeit 15:00 04:00 01:00 03:00 13:30 - - 12:20 12:20 13:10 06:00 13:30
Maximum _ 2.5 C 94 % 1016.6 hPa 0.2 mm 12.9 km/h
W
- - 10 min 1.0 UV-I 550.0 W/m 0.6 C 25.7 km/h
W-SW
Durchschnitt _ 0.4 C 91 % 1006.2 hPa #2.4 mm 6.0 km/h W - #0 min. 0.0 UV-I 0.0 W/m -1.2 C 12.8 km/h